Time;durP1;ratioP1;P1;durP2;ratioP2;P2;SDS_P1;SDS_P2;PMS_P1;PMS_P2;Temp;Humidity;BMP_temperature;BMP_pressure;BME280_temperature;BME280_humidity;BME280_pressure;Samples;Min_cycle;Max_cycle;Signal;HPM_P1;HPM_P2
2021/07/25 00:01:41;;;;;;;23.47;19.62;;;20.90;99.90;;;;;;1954488;73;21074;-73
2021/07/25 00:04:08;;;;;;;28.10;19.75;;;20.80;99.90;;;;;;1951852;72;21375;-72
2021/07/25 00:06:36;;;;;;;24.57;19.87;;;20.80;99.90;;;;;;1952015;73;21093;-73
2021/07/25 00:09:03;;;;;;;23.85;21.20;;;20.70;99.90;;;;;;1953591;73;21058;-73
2021/07/25 00:11:31;;;;;;;27.42;21.02;;;20.70;99.90;;;;;;1952102;72;21127;-73
2021/07/25 00:14:02;;;;;;;30.00;20.05;;;20.60;99.90;;;;;;1944759;72;21069;-73
2021/07/25 00:16:27;;;;;;;26.05;19.52;;;20.60;99.90;;;;;;1942338;73;21219;-73
2021/07/25 00:18:55;;;;;;;24.60;19.67;;;20.60;99.90;;;;;;1898906;74;21151;-73
2021/07/25 00:21:23;;;;;;;28.42;19.60;;;20.60;99.90;;;;;;1909303;74;21187;-73
2021/07/25 00:23:53;;;;;;;28.07;20.75;;;20.60;99.90;;;;;;1881276;76;21177;-74
2021/07/25 00:26:25;;;;;;;28.92;20.95;;;20.50;99.90;;;;;;1941790;73;21081;-73
2021/07/25 00:28:51;;;;;;;27.05;20.23;;;20.50;99.90;;;;;;1947492;73;21010;-74
2021/07/25 00:31:18;;;;;;;28.47;21.05;;;20.50;99.90;;;;;;1952211;72;21124;-74
2021/07/25 00:33:48;;;;;;;26.30;21.62;;;20.50;99.90;;;;;;1943819;72;21228;-74
2021/07/25 00:36:15;;;;;;;29.65;21.37;;;20.50;99.90;;;;;;1951878;72;21664;-75
2021/07/25 00:38:43;;;;;;;26.25;20.15;;;20.40;99.90;;;;;;1951736;73;21100;-74
2021/07/25 00:41:19;;;;;;;25.77;20.45;;;20.50;99.90;;;;;;1944833;72;21163;-74
2021/07/25 00:43:46;;;;;;;25.40;20.95;;;20.50;99.90;;;;;;1947426;72;21151;-75
2021/07/25 00:46:15;;;;;;;24.95;20.57;;;20.50;99.90;;;;;;1951920;72;21110;-74
2021/07/25 00:48:44;;;;;;;28.32;21.35;;;20.50;99.90;;;;;;1947166;72;21515;-74
2021/07/25 00:51:12;;;;;;;25.72;20.27;;;20.50;99.90;;;;;;1950477;73;21039;-74
2021/07/25 00:53:42;;;;;;;29.37;21.15;;;20.60;99.90;;;;;;1929305;72;21604;-74
2021/07/25 00:56:10;;;;;;;24.27;19.45;;;20.60;99.90;;;;;;1941357;72;21109;-73
2021/07/25 00:58:39;;;;;;;28.15;20.90;;;20.60;99.90;;;;;;1947575;72;21073;-72
2021/07/25 01:01:08;;;;;;;26.62;21.02;;;20.60;99.90;;;;;;1948606;72;21156;-73
2021/07/25 01:03:58;;;;;;;24.18;20.20;;;20.70;99.90;;;;;;1949182;72;21102;-73
2021/07/25 01:06:35;;;;;;;25.82;20.48;;;20.60;99.90;;;;;;1947355;73;21183;-72
2021/07/25 01:09:07;;;;;;;26.75;21.95;;;20.70;99.90;;;;;;1951686;72;21554;-72
2021/07/25 01:11:44;;;;;;;30.65;20.77;;;20.70;99.90;;;;;;1951848;72;21090;-72
2021/07/25 01:14:14;;;;;;;26.27;21.55;;;20.60;99.90;;;;;;1950625;72;20999;-73
2021/07/25 01:16:42;;;;;;;25.62;21.50;;;20.70;99.90;;;;;;1944332;72;21082;-72
2021/07/25 01:19:09;;;;;;;25.43;22.00;;;20.70;99.90;;;;;;1946179;72;21030;-73
2021/07/25 01:21:37;;;;;;;37.60;24.07;;;20.60;99.90;;;;;;1950202;73;21061;-74
2021/07/25 01:24:05;;;;;;;38.50;25.10;;;20.60;99.90;;;;;;1942653;72;21218;-73
2021/07/25 01:26:35;;;;;;;33.88;25.72;;;20.60;99.90;;;;;;1952370;72;21074;-73
2021/07/25 01:29:05;;;;;;;29.67;25.00;;;20.80;99.90;;;;;;1947366;72;21070;-73
2021/07/25 01:31:36;;;;;;;34.95;26.10;;;20.70;99.90;;;;;;1950187;73;21070;-72
2021/07/25 01:34:03;;;;;;;39.88;26.37;;;20.70;99.90;;;;;;1947715;72;21062;-74
2021/07/25 01:36:32;;;;;;;35.85;25.68;;;20.60;99.90;;;;;;1949044;72;21106;-74
2021/07/25 01:39:00;;;;;;;39.27;26.45;;;20.60;99.90;;;;;;1951518;73;21046;-73
2021/07/25 01:41:27;;;;;;;39.42;27.15;;;20.50;99.90;;;;;;1952232;72;21127;-72
2021/07/25 01:43:55;;;;;;;41.13;27.70;;;20.60;99.90;;;;;;1951253;73;21086;-73
2021/07/25 01:46:22;;;;;;;37.05;29.27;;;20.50;99.90;;;;;;1948338;73;21124;-73
2021/07/25 01:48:50;;;;;;;44.03;31.60;;;20.50;99.90;;;;;;1949415;72;21073;-73
2021/07/25 01:51:17;;;;;;;48.23;32.60;;;20.50;99.90;;;;;;1944677;72;21082;-72
2021/07/25 01:53:45;;;;;;;40.20;29.50;;;20.50;99.90;;;;;;1949658;72;21148;-72
2021/07/25 01:56:13;;;;;;;53.90;33.60;;;20.50;99.90;;;;;;1947400;72;21085;-72
2021/07/25 01:58:40;;;;;;;51.73;35.83;;;20.50;99.90;;;;;;1941245;74;21066;-73
2021/07/25 02:01:08;;;;;;;50.75;35.13;;;20.50;99.90;;;;;;1946557;72;21069;-74
2021/07/25 02:03:37;;;;;;;52.23;37.23;;;20.50;99.90;;;;;;1946517;73;21137;-72
2021/07/25 02:06:04;;;;;;;53.95;36.68;;;20.50;99.90;;;;;;1947748;73;21184;-72
2021/07/25 02:08:32;;;;;;;52.50;36.23;;;20.50;99.90;;;;;;1943608;72;21054;-72
2021/07/25 02:10:59;;;;;;;59.40;38.90;;;20.40;99.90;;;;;;1952462;72;21073;-73
2021/07/25 02:13:27;;;;;;;47.78;36.93;;;20.30;99.90;;;;;;1951994;72;21158;-73
2021/07/25 02:15:54;;;;;;;54.15;37.65;;;20.30;99.90;;;;;;1950199;73;21117;-73
2021/07/25 02:18:22;;;;;;;59.25;38.58;;;20.40;99.90;;;;;;1951950;73;21078;-73
2021/07/25 02:20:49;;;;;;;53.05;38.25;;;20.40;99.90;;;;;;1944126;73;21124;-73
2021/07/25 02:23:17;;;;;;;63.95;39.08;;;20.30;99.90;;;;;;1948338;72;21566;-73
2021/07/25 02:25:44;;;;;;;58.98;38.80;;;20.40;99.90;;;;;;1944469;72;21058;-73
2021/07/25 02:28:12;;;;;;;60.83;41.28;;;20.40;99.90;;;;;;1946957;73;21058;-73
2021/07/25 02:30:40;;;;;;;57.48;39.70;;;20.50;99.90;;;;;;1951932;73;21139;-73
2021/07/25 02:33:07;;;;;;;70.87;42.65;;;20.50;99.90;;;;;;1949635;72;21070;-74
2021/07/25 02:35:35;;;;;;;62.20;42.10;;;20.40;99.90;;;;;;1942386;72;21042;-74
2021/07/25 02:38:03;;;;;;;61.10;41.25;;;20.50;99.90;;;;;;1945925;71;21105;-73
2021/07/25 02:40:30;;;;;;;73.65;45.35;;;20.70;99.90;;;;;;1946546;72;21092;-73
2021/07/25 02:42:58;;;;;;;62.85;43.75;;;20.60;99.90;;;;;;1949733;72;21163;-73
2021/07/25 02:45:25;;;;;;;66.72;43.00;;;20.50;99.90;;;;;;1948293;72;21547;-72
2021/07/25 02:47:53;;;;;;;64.20;43.05;;;20.40;99.90;;;;;;1942995;73;21149;-72
2021/07/25 02:50:20;;;;;;;69.42;42.78;;;20.40;99.90;;;;;;1947807;72;21104;-72
2021/07/25 02:52:48;;;;;;;59.60;40.80;;;20.40;99.90;;;;;;1939993;73;21573;-72
2021/07/25 02:55:15;;;;;;;71.05;43.10;;;20.50;99.90;;;;;;1948495;72;21069;-72
2021/07/25 02:57:43;;;;;;;70.17;45.10;;;20.50;99.90;;;;;;1955450;72;21011;-73
2021/07/25 03:00:11;;;;;;;63.02;42.33;;;20.50;99.90;;;;;;1945771;72;21054;-72
2021/07/25 03:02:39;;;;;;;63.95;42.60;;;20.50;99.90;;;;;;1956309;72;21062;-72
2021/07/25 03:05:08;;;;;;;66.37;43.65;;;20.50;99.90;;;;;;1947381;72;21139;-73
2021/07/25 03:07:35;;;;;;;63.13;42.67;;;20.50;99.90;;;;;;1948509;72;21023;-73
2021/07/25 03:10:03;;;;;;;59.90;42.90;;;20.50;99.90;;;;;;1946653;72;21497;-74
2021/07/25 03:12:31;;;;;;;69.50;43.58;;;20.40;99.90;;;;;;1952102;73;21077;-73
2021/07/25 03:14:58;;;;;;;65.65;44.18;;;20.40;99.90;;;;;;1950143;73;21472;-74
2021/07/25 03:17:26;;;;;;;62.55;43.95;;;20.50;99.90;;;;;;1944661;72;21093;-73
2021/07/25 03:19:54;;;;;;;65.67;42.78;;;20.40;99.90;;;;;;1949060;73;21062;-73
2021/07/25 03:22:22;;;;;;;67.67;42.85;;;20.50;99.90;;;;;;1950087;73;20999;-73
2021/07/25 03:24:50;;;;;;;60.25;42.30;;;20.50;99.90;;;;;;1947470;73;21132;-73
2021/07/25 03:27:17;;;;;;;65.00;41.70;;;20.40;99.90;;;;;;1945656;72;21062;-73
2021/07/25 03:29:45;;;;;;;67.60;42.50;;;20.50;99.90;;;;;;1949652;72;21131;-73
2021/07/25 03:32:18;;;;;;;68.33;42.03;;;20.50;99.90;;;;;;1953958;73;21082;-71
2021/07/25 03:34:41;;;;;;;61.70;39.30;;;20.60;99.90;;;;;;1948810;72;21049;-73
2021/07/25 03:37:09;;;;;;;59.98;41.30;;;20.50;99.90;;;;;;1942457;73;21117;-74
2021/07/25 03:39:36;;;;;;;53.68;41.73;;;20.40;99.90;;;;;;1943074;72;21085;-74
2021/07/25 03:42:05;;;;;;;53.70;39.65;;;20.40;99.90;;;;;;1947018;72;21078;-74
2021/07/25 03:44:33;;;;;;;69.60;43.52;;;20.40;99.90;;;;;;1944730;72;21336;-74
2021/07/25 03:47:02;;;;;;;57.65;43.05;;;20.50;99.90;;;;;;1941447;72;21105;-73
2021/07/25 03:49:29;;;;;;;65.15;42.75;;;20.40;99.90;;;;;;1946775;72;21583;-73
2021/07/25 03:51:57;;;;;;;65.25;43.30;;;20.40;99.90;;;;;;1952289;73;22114;-73
2021/07/25 03:54:25;;;;;;;69.53;44.25;;;20.40;99.90;;;;;;1948993;72;21592;-73
2021/07/25 03:56:53;;;;;;;62.15;43.15;;;20.30;99.90;;;;;;1952335;72;21106;-74
2021/07/25 03:59:20;;;;;;;61.50;42.38;;;20.30;99.90;;;;;;1946527;72;21101;-74
2021/07/25 04:01:48;;;;;;;63.02;43.00;;;20.30;99.90;;;;;;1941756;73;21523;-74
2021/07/25 04:04:15;;;;;;;67.45;41.60;;;20.30;99.90;;;;;;1943905;73;21155;-74
2021/07/25 04:06:43;;;;;;;60.15;43.78;;;20.40;99.90;;;;;;1941278;72;21117;-74
2021/07/25 04:09:10;;;;;;;66.17;44.20;;;20.50;99.90;;;;;;1945728;72;21511;-74
2021/07/25 04:11:38;;;;;;;66.53;43.85;;;20.50;99.90;;;;;;1952433;72;21552;-74
2021/07/25 04:14:05;;;;;;;65.75;42.78;;;20.40;99.90;;;;;;1949966;72;21079;-74
2021/07/25 04:16:33;;;;;;;61.15;42.53;;;20.50;99.90;;;;;;1949987;72;21109;-74
2021/07/25 04:19:00;;;;;;;57.50;41.40;;;20.40;99.90;;;;;;1950829;72;21515;-74
2021/07/25 04:21:28;;;;;;;63.08;39.33;;;20.40;99.90;;;;;;1942915;72;21957;-74
2021/07/25 04:23:55;;;;;;;59.85;38.45;;;20.40;99.90;;;;;;1948156;72;21109;-73
2021/07/25 04:26:23;;;;;;;55.50;39.05;;;20.40;99.90;;;;;;1952121;73;21141;-74
2021/07/25 04:28:51;;;;;;;52.73;38.17;;;20.30;99.90;;;;;;1943571;72;21124;-73
2021/07/25 04:31:19;;;;;;;55.23;39.20;;;20.40;99.90;;;;;;1951706;73;21055;-74
2021/07/25 04:33:51;;;;;;;57.65;39.55;;;20.30;99.90;;;;;;1944794;72;21066;-74
2021/07/25 04:36:24;;;;;;;60.75;39.88;;;20.20;99.90;;;;;;1951671;72;21157;-71
2021/07/25 04:38:45;;;;;;;56.13;40.28;;;20.20;99.90;;;;;;1916185;73;21535;-71
2021/07/25 04:41:14;;;;;;;57.25;40.23;;;20.10;99.90;;;;;;1912783;73;21765;-70
2021/07/25 04:43:42;;;;;;;56.75;40.80;;;20.20;99.90;;;;;;1916201;74;21562;-70
2021/07/25 04:46:24;;;;;;;58.73;40.98;;;20.30;99.90;;;;;;1912397;75;21081;-70
2021/07/25 04:48:52;;;;;;;;;;;20.20;99.90;;;;;;1880105;74;21167;-71
2021/07/25 04:51:21;;;;;;;63.50;41.75;;;20.20;99.90;;;;;;1883047;75;20124;-70
2021/07/25 04:53:51;;;;;;;57.90;40.85;;;20.20;99.90;;;;;;1886691;74;21091;-71
2021/07/25 04:56:21;;;;;;;59.95;42.90;;;20.20;99.90;;;;;;1879148;74;21050;-71
2021/07/25 04:58:53;;;;;;;62.50;41.35;;;20.20;99.90;;;;;;1876104;74;21041;-72
2021/07/25 05:01:30;;;;;;;62.78;44.35;;;20.20;99.90;;;;;;1879484;74;21131;-70
2021/07/25 05:03:58;;;;;;;70.62;43.45;;;20.20;99.90;;;;;;1876541;74;21073;-71
2021/07/25 05:06:26;;;;;;;72.35;46.80;;;20.20;99.90;;;;;;1883773;74;21129;-71
2021/07/25 05:08:53;;;;;;;66.00;44.45;;;20.30;99.90;;;;;;1883051;74;21077;-71
2021/07/25 05:11:24;;;;;;;69.82;44.88;;;20.30;99.90;;;;;;1876018;76;21700;-71
2021/07/25 05:13:54;;;;;;;78.45;46.18;;;20.30;99.90;;;;;;1877333;74;21147;-71
2021/07/25 05:16:34;;;;;;;69.97;46.77;;;20.30;99.90;;;;;;1876048;74;21069;-71
2021/07/25 05:19:24;;;;;;;68.85;47.10;;;20.40;99.90;;;;;;1870104;75;21105;-71
2021/07/25 05:22:06;;;;;;;68.70;47.62;;;20.30;99.90;;;;;;1879430;75;21080;-71
2021/07/25 05:24:36;;;;;;;70.80;47.83;;;20.40;99.90;;;;;;1881948;74;22062;-71
2021/07/25 05:27:04;;;;;;;75.52;49.98;;;20.50;99.90;;;;;;1877598;74;21133;-71
2021/07/25 05:29:34;;;;;;;71.97;48.48;;;20.40;99.90;;;;;;1881128;75;22198;-71
2021/07/25 05:32:01;;;;;;;69.35;46.77;;;20.50;99.90;;;;;;1884132;75;21100;-71
2021/07/25 05:34:29;;;;;;;69.70;48.08;;;20.40;99.90;;;;;;1884227;75;21142;-71
2021/07/25 05:36:56;;;;;;;68.70;46.70;;;20.50;99.90;;;;;;1885220;75;21115;-71
2021/07/25 05:39:24;;;;;;;73.55;48.80;;;20.50;99.90;;;;;;1869694;76;21117;-71
2021/07/25 05:41:51;;;;;;;70.40;45.78;;;20.40;99.90;;;;;;1885025;75;21081;-71
2021/07/25 05:44:19;;;;;;;75.17;47.85;;;20.40;99.90;;;;;;1889613;75;21171;-71
2021/07/25 05:46:46;;;;;;;71.33;45.80;;;20.50;99.90;;;;;;1868052;75;21262;-71
2021/07/25 05:49:14;;;;;;;62.88;45.15;;;20.70;99.90;;;;;;1884419;75;21088;-71
2021/07/25 05:51:41;;;;;;;67.12;44.65;;;20.70;99.90;;;;;;1883389;75;21084;-71
2021/07/25 05:54:09;;;;;;;63.78;43.52;;;20.70;99.90;;;;;;1884064;74;21763;-71
2021/07/25 05:56:36;;;;;;;65.12;45.25;;;20.70;99.90;;;;;;1885431;75;22150;-71
2021/07/25 05:59:06;;;;;;;67.37;44.63;;;20.60;99.90;;;;;;1884853;75;21498;-71
2021/07/25 06:01:33;;;;;;;71.50;46.77;;;20.60;99.90;;;;;;1883145;75;21209;-71
2021/07/25 06:04:01;;;;;;;71.28;45.78;;;20.60;99.90;;;;;;1882345;75;21241;-70
2021/07/25 06:06:28;;;;;;;70.15;44.73;;;20.60;99.90;;;;;;1885351;75;21569;-72
2021/07/25 06:08:56;;;;;;;68.97;44.93;;;20.60;99.90;;;;;;1883368;75;21085;-71
2021/07/25 06:11:24;;;;;;;63.33;45.33;;;20.50;99.90;;;;;;1883447;75;21071;-72
2021/07/25 06:13:52;;;;;;;66.20;45.43;;;20.70;99.90;;;;;;1879963;75;21159;-70
2021/07/25 06:16:19;;;;;;;66.82;44.27;;;20.60;99.90;;;;;;1881714;75;21025;-72
2021/07/25 06:18:51;;;;;;;67.12;43.20;;;20.70;99.90;;;;;;1883510;75;21104;-72
2021/07/25 06:21:17;;;;;;;60.70;42.88;;;20.60;99.90;;;;;;1878687;75;21182;-71
2021/07/25 06:23:50;;;;;;;65.70;43.20;;;20.60;99.90;;;;;;1884685;74;21161;-72
2021/07/25 06:26:18;;;;;;;64.17;41.98;;;20.70;99.90;;;;;;1885244;74;21522;-72
2021/07/25 06:28:45;;;;;;;58.13;41.58;;;20.80;99.90;;;;;;1892741;74;21539;-72
2021/07/25 06:31:13;;;;;;;54.30;39.45;;;20.80;99.90;;;;;;1884989;75;21110;-69
2021/07/25 06:33:41;;;;;;;60.35;41.23;;;20.90;99.90;;;;;;1885833;74;21125;-71
2021/07/25 06:36:12;;;;;;;58.05;41.70;;;20.90;99.90;;;;;;1884471;74;21085;-72
2021/07/25 06:38:41;;;;;;;60.85;42.08;;;20.90;99.90;;;;;;1884765;75;21065;-72
2021/07/25 06:41:09;;;;;;;59.35;39.30;;;20.90;99.90;;;;;;1884704;75;21123;-72
2021/07/25 06:43:36;;;;;;;58.52;38.15;;;20.90;99.90;;;;;;1887853;73;21067;-73
2021/07/25 06:46:04;;;;;;;59.75;41.40;;;20.90;99.90;;;;;;1884710;74;21037;-72
2021/07/25 06:48:36;;;;;;;61.92;40.50;;;21.10;99.90;;;;;;1882268;74;21081;-72
2021/07/25 06:51:02;;;;;;;58.73;40.45;;;21.00;99.90;;;;;;1879682;75;21100;-72
2021/07/25 06:53:32;;;;;;;58.85;38.92;;;21.10;99.90;;;;;;1866725;75;21054;-72
2021/07/25 06:56:03;;;;;;;60.08;38.70;;;21.10;99.90;;;;;;1867692;76;21092;-72
2021/07/25 06:58:32;;;;;;;61.33;38.50;;;21.10;99.90;;;;;;1867723;77;21626;-70
2021/07/25 07:01:00;;;;;;;59.65;38.20;;;21.20;99.90;;;;;;1866479;76;22276;-72
2021/07/25 07:03:28;;;;;;;57.58;38.45;;;21.30;99.90;;;;;;1855819;77;21662;-72
2021/07/25 07:05:55;;;;;;;57.43;40.48;;;21.20;99.90;;;;;;1855521;75;21552;-72
2021/07/25 07:08:23;;;;;;;54.18;38.73;;;21.10;99.90;;;;;;1864612;75;21126;-72
2021/07/25 07:10:50;;;;;;;57.70;37.33;;;21.10;99.90;;;;;;1880431;75;21117;-72
2021/07/25 07:13:19;;;;;;;55.58;39.35;;;21.10;99.90;;;;;;1882851;74;21594;-72
2021/07/25 07:15:48;;;;;;;54.05;36.35;;;21.20;99.90;;;;;;1884905;73;21178;-72
2021/07/25 07:18:17;;;;;;;58.45;37.23;;;21.30;99.90;;;;;;1884302;75;21497;-72
2021/07/25 07:20:46;;;;;;;55.00;36.65;;;21.30;99.90;;;;;;1880294;76;21112;-72
2021/07/25 07:23:17;;;;;;;56.28;37.90;;;21.40;99.90;;;;;;1878715;74;21798;-72
2021/07/25 07:25:47;;;;;;;51.37;37.83;;;21.50;99.90;;;;;;1880823;74;21055;-71
2021/07/25 07:28:16;;;;;;;51.45;35.40;;;21.40;99.90;;;;;;1876651;74;21077;-71
2021/07/25 07:30:44;;;;;;;50.73;36.53;;;21.40;99.90;;;;;;1856222;74;21116;-71
2021/07/25 07:33:17;;;;;;;55.33;36.03;;;21.50;99.90;;;;;;1840264;77;21179;-71
2021/07/25 07:35:45;;;;;;;48.73;37.13;;;21.50;99.90;;;;;;1867852;75;21555;-71
2021/07/25 07:38:13;;;;;;;49.83;37.58;;;21.40;99.90;;;;;;1868651;75;21211;-71
2021/07/25 07:40:43;;;;;;;59.58;37.28;;;21.40;99.90;;;;;;1869190;75;21182;-71
2021/07/25 07:43:12;;;;;;;53.48;34.70;;;21.40;99.90;;;;;;1876163;75;21112;-71
2021/07/25 07:45:40;;;;;;;52.70;35.85;;;21.30;99.90;;;;;;1869379;75;21101;-71
2021/07/25 07:48:08;;;;;;;48.75;35.28;;;21.20;99.90;;;;;;1885234;75;21545;-71
2021/07/25 07:50:36;;;;;;;46.37;32.88;;;21.30;99.90;;;;;;1863993;75;21009;-71
2021/07/25 07:53:04;;;;;;;47.88;33.85;;;21.40;99.90;;;;;;1878826;76;21523;-72
2021/07/25 07:55:31;;;;;;;41.77;31.80;;;21.50;99.90;;;;;;1889979;75;21555;-71
2021/07/25 07:57:59;;;;;;;47.67;32.90;;;21.60;99.90;;;;;;1885502;75;21539;-72
2021/07/25 08:00:26;;;;;;;43.85;30.00;;;21.70;99.90;;;;;;1864806;75;21604;-71
2021/07/25 08:02:54;;;;;;;46.45;32.95;;;21.80;99.90;;;;;;1865816;75;21518;-71
2021/07/25 08:05:21;;;;;;;48.58;34.48;;;21.70;99.90;;;;;;1885102;75;21051;-70
2021/07/25 08:07:49;;;;;;;41.95;32.13;;;21.80;99.90;;;;;;1865342;75;21086;-73
2021/07/25 08:10:17;;;;;;;48.30;31.85;;;21.80;99.90;;;;;;1862777;75;21476;-71
2021/07/25 08:12:44;;;;;;;43.87;31.68;;;21.70;99.90;;;;;;1870950;76;21044;-71
2021/07/25 08:15:13;;;;;;;49.15;29.80;;;21.70;99.90;;;;;;1886827;75;21585;-71
2021/07/25 08:17:41;;;;;;;40.48;29.18;;;21.60;99.90;;;;;;1855862;76;21651;-71
2021/07/25 08:20:09;;;;;;;39.75;29.60;;;21.60;99.90;;;;;;1852711;76;21071;-71
2021/07/25 08:22:37;;;;;;;39.63;28.05;;;21.70;99.90;;;;;;1852025;77;21524;-71
2021/07/25 08:25:06;;;;;;;43.50;29.45;;;21.70;99.90;;;;;;1842923;78;21168;-71
2021/07/25 08:27:33;;;;;;;38.63;26.85;;;21.90;99.90;;;;;;1885065;74;21614;-71
2021/07/25 08:30:01;;;;;;;45.73;28.80;;;22.00;99.90;;;;;;1894366;74;21103;-72
2021/07/25 08:32:28;;;;;;;45.23;29.65;;;22.10;99.90;;;;;;1863461;76;21728;-70
2021/07/25 08:34:56;;;;;;;48.35;31.15;;;22.20;99.90;;;;;;1884166;75;21135;-70
2021/07/25 08:37:23;;;;;;;38.23;27.98;;;22.30;99.90;;;;;;1887153;73;21072;-70
2021/07/25 08:39:54;;;;;;;39.48;28.42;;;22.30;99.90;;;;;;1845447;77;21163;-70
2021/07/25 08:42:24;;;;;;;38.78;27.52;;;22.30;99.90;;;;;;1858416;76;21022;-70
2021/07/25 08:44:59;;;;;;;43.33;29.98;;;22.50;99.90;;;;;;1854014;76;21047;-71
2021/07/25 08:47:33;;;;;;;42.25;27.00;;;22.60;99.90;;;;;;1857706;76;21180;-70
2021/07/25 08:50:04;;;;;;;34.03;25.30;;;22.60;99.90;;;;;;1857178;77;21080;-71
2021/07/25 08:52:34;;;;;;;36.98;24.60;;;22.60;99.90;;;;;;1855074;76;21131;-70
2021/07/25 08:55:05;;;;;;;34.78;24.47;;;22.70;99.90;;;;;;1853089;76;21122;-70
2021/07/25 08:57:35;;;;;;;31.48;22.62;;;22.80;99.90;;;;;;1858016;76;21226;-71
2021/07/25 09:00:06;;;;;;;32.50;22.32;;;22.90;99.90;;;;;;1859197;77;21169;-71
2021/07/25 09:02:34;;;;;;;28.63;21.37;;;22.90;99.90;;;;;;1859495;76;21103;-71
2021/07/25 09:05:02;;;;;;;32.13;21.35;;;22.90;99.90;;;;;;1859126;76;21045;-71
2021/07/25 09:07:32;;;;;;;26.57;20.10;;;23.00;99.90;;;;;;1858976;76;21069;-71
2021/07/25 09:10:02;;;;;;;26.20;20.15;;;23.10;99.90;;;;;;1858720;76;21617;-71
2021/07/25 09:12:31;;;;;;;25.95;19.77;;;23.10;99.90;;;;;;1858730;76;21543;-71
2021/07/25 09:15:11;;;;;;;25.65;20.68;;;23.10;99.90;;;;;;1858678;76;21210;-71
2021/07/25 09:17:39;;;;;;;28.65;19.73;;;23.20;99.90;;;;;;1858684;76;21088;-71
2021/07/25 09:20:21;;;;;;;27.77;18.60;;;23.30;99.90;;;;;;1855274;76;21077;-71
2021/07/25 09:22:49;;;;;;;;;;;23.40;99.90;;;;;;1852196;77;21112;-71
2021/07/25 09:25:28;;;;;;;25.97;17.37;;;23.40;99.90;;;;;;1847317;77;20188;-70
2021/07/25 09:27:59;;;;;;;29.70;16.67;;;23.50;99.90;;;;;;1858518;76;21186;-71
2021/07/25 09:30:31;;;;;;;23.70;15.78;;;23.60;99.90;;;;;;1858647;76;21138;-71
2021/07/25 09:32:58;;;;;;;;;;;23.70;99.90;;;;;;1861094;77;21045;-71
2021/07/25 09:35:36;;;;;;;25.82;18.48;;;23.70;99.90;;;;;;1846200;76;20228;-72
2021/07/25 09:38:09;;;;;;;22.85;16.85;;;23.70;99.90;;;;;;1850112;75;22181;-71
2021/07/25 09:40:39;;;;;;;21.68;14.40;;;23.60;99.90;;;;;;1851431;76;21089;-70
2021/07/25 09:43:12;;;;;;;21.73;14.00;;;23.70;99.90;;;;;;1856393;75;21585;-69
2021/07/25 09:45:54;;;;;;;14.85;12.25;;;23.80;99.90;;;;;;1853252;75;21503;-70
2021/07/25 09:48:35;;;;;;;17.73;12.98;;;24.10;99.90;;;;;;1864325;75;21539;-67
2021/07/25 09:51:05;;;;;;;18.45;12.55;;;24.00;99.90;;;;;;1864377;75;21056;-68
2021/07/25 09:53:44;;;;;;;16.02;12.82;;;24.00;99.90;;;;;;1861894;75;21010;-67
2021/07/25 09:56:16;;;;;;;16.35;12.10;;;23.90;99.90;;;;;;1864326;75;21492;-67
2021/07/25 09:58:44;;;;;;;20.50;11.38;;;24.00;99.90;;;;;;1865265;77;21084;-67
2021/07/25 10:01:26;;;;;;;16.73;10.90;;;24.00;99.90;;;;;;1856813;77;21035;-67
2021/07/25 10:03:53;;;;;;;16.63;11.83;;;23.90;99.90;;;;;;1808593;76;21094;-67
2021/07/25 10:06:23;;;;;;;14.98;10.20;;;24.00;99.90;;;;;;1864232;75;21068;-67
2021/07/25 10:09:13;;;;;;;17.70;10.88;;;24.00;99.90;;;;;;1863794;76;21045;-67
2021/07/25 10:11:44;;;;;;;16.75;10.20;;;24.10;99.90;;;;;;1864586;76;21512;-67
2021/07/25 10:14:13;;;;;;;17.48;10.43;;;24.30;99.90;;;;;;1847767;75;21060;-67
2021/07/25 10:16:41;;;;;;;11.53;9.70;;;24.50;99.90;;;;;;1863551;75;21120;-69
2021/07/25 10:19:09;;;;;;;18.52;10.15;;;24.50;99.90;;;;;;1863648;77;21089;-68
2021/07/25 10:21:38;;;;;;;15.88;10.13;;;24.60;99.90;;;;;;1864484;77;21108;-68
2021/07/25 10:24:07;;;;;;;14.38;9.23;;;24.80;99.90;;;;;;1864440;75;22115;-67
2021/07/25 10:26:37;;;;;;;11.63;8.60;;;24.90;99.90;;;;;;1859521;75;21132;-67
2021/07/25 10:29:07;;;;;;;12.10;9.25;;;24.90;99.90;;;;;;1864352;77;21189;-67
2021/07/25 10:31:36;;;;;;;12.85;8.80;;;25.00;99.90;;;;;;1861201;77;21575;-67
2021/07/25 10:34:06;;;;;;;12.93;9.35;;;25.10;99.90;;;;;;1863842;77;22188;-67
2021/07/25 10:36:57;;;;;;;10.38;6.53;;;25.10;99.90;;;;;;1862356;75;21338;-67
2021/07/25 10:39:06;;;;;;;11.57;6.95;;;25.10;99.90;;;;;;1861413;75;21089;-71
2021/07/25 10:41:34;;;;;;;11.03;6.92;;;25.20;99.90;;;;;;1854378;76;21108;-73
2021/07/25 10:44:02;;;;;;;11.45;7.85;;;25.10;99.90;;;;;;1876634;76;21135;-72
2021/07/25 10:46:32;;;;;;;9.55;7.08;;;25.10;99.90;;;;;;1869154;76;21080;-74
2021/07/25 10:49:05;;;;;;;50.67;12.28;;;25.10;99.90;;;;;;1888887;75;21109;-71
2021/07/25 10:51:34;;;;;;;13.62;7.70;;;25.10;99.90;;;;;;1902490;74;21117;-74
2021/07/25 10:54:25;;;;;;;9.53;7.97;;;25.20;99.90;;;;;;1888579;75;21046;-76
2021/07/25 10:57:02;;;;;;;13.48;9.28;;;25.10;99.90;;;;;;1873746;75;21566;-73
2021/07/25 10:59:41;;;;;;;17.70;8.83;;;25.20;99.90;;;;;;1859339;76;21095;-72
2021/07/25 11:02:14;;;;;;;14.73;8.28;;;25.20;99.90;;;;;;1884276;74;21588;-73
2021/07/25 11:04:58;;;;;;;;;;;25.10;99.90;;;;;;1866867;75;21195;-71
2021/07/25 11:07:26;;;;;;;;;;;24.80;99.90;;;;;;1859689;75;20152;-70
2021/07/25 11:09:56;;;;;;;;;;;24.60;99.90;;;;;;1888558;74;20385;-72
2021/07/25 11:12:23;;;;;;;;;;;24.20;99.90;;;;;;1879754;74;20265;-72
2021/07/25 11:14:58;;;;;;;;;;;24.10;99.90;;;;;;1895103;74;20179;-71
2021/07/25 11:17:26;;;;;;;;;;;24.20;99.90;;;;;;1868504;75;20176;-73
2021/07/25 11:19:53;;;;;;;;;;;24.30;99.90;;;;;;1848082;75;20467;-71
2021/07/25 11:22:38;;;;;;;;;;;24.40;99.90;;;;;;1881569;75;20185;-69
2021/07/25 11:25:04;;;;;;;;;;;24.60;99.90;;;;;;1887291;74;20447;-70
2021/07/25 11:27:36;;;;;;;;;;;24.50;99.90;;;;;;1876067;75;20131;-70
2021/07/25 11:30:02;;;;;;;;;;;24.50;99.90;;;;;;1890818;75;20446;-70
2021/07/25 11:32:38;;;;;;;;;;;24.40;99.90;;;;;;1916479;74;20111;-71
2021/07/25 11:35:06;;;;;;;;;;;24.30;99.90;;;;;;1914275;74;20458;-69
2021/07/25 11:37:40;;;;;;;;;;;24.30;99.90;;;;;;1901395;74;20175;-70
2021/07/25 11:40:07;;;;;;;;;;;24.30;99.90;;;;;;1899295;74;20948;-70
2021/07/25 11:42:34;;;;;;;;;;;24.20;99.90;;;;;;1892311;74;20183;-70
2021/07/25 11:45:04;;;;;;;;;;;24.30;99.90;;;;;;1877088;74;20461;-69
2021/07/25 11:47:32;;;;;;;;;;;24.30;99.90;;;;;;1888751;75;20158;-71
2021/07/25 11:49:58;;;;;;;;;;;24.30;99.90;;;;;;1869068;75;20158;-71
2021/07/25 11:52:28;;;;;;;;;;;24.30;99.90;;;;;;1905374;74;20147;-70
2021/07/25 11:54:54;;;;;;;;;;;24.40;99.90;;;;;;1888839;75;20170;-69
2021/07/25 11:57:24;;;;;;;;;;;24.40;99.90;;;;;;1895976;74;20486;-70
2021/07/25 12:00:02;;;;;;;;;;;24.50;99.90;;;;;;1858935;77;20146;-70
2021/07/25 12:02:27;;;;;;;;;;;24.60;99.90;;;;;;1858482;77;20169;-70
2021/07/25 12:04:58;;;;;;;;;;;24.50;99.90;;;;;;1858748;77;20169;-70
2021/07/25 12:07:24;;;;;;;;;;;24.60;99.90;;;;;;1857693;77;20534;-70
2021/07/25 12:09:52;;;;;;;;;;;24.60;99.90;;;;;;1876544;74;20116;-70
2021/07/25 12:12:20;;;;;;;;;;;24.60;99.90;;;;;;1886781;74;20197;-70
2021/07/25 12:14:48;;;;;;;;;;;24.70;99.90;;;;;;1873002;74;20187;-70
2021/07/25 12:17:33;;;;;;;;;;;24.60;99.90;;;;;;1920417;74;20125;-69
2021/07/25 12:20:02;;;;;;;;;;;24.60;99.90;;;;;;1924114;74;20158;-69
2021/07/25 12:22:28;;;;;;;;;;;24.60;99.90;;;;;;1918415;74;20461;-69
2021/07/25 12:24:57;;;;;;;;;;;24.70;99.90;;;;;;1890458;76;20209;-69
2021/07/25 12:27:28;;;;;;;;;;;24.80;99.90;;;;;;1888842;76;20450;-68
2021/07/25 12:30:08;;;;;;;;;;;24.80;99.90;;;;;;1890377;74;20514;-69
2021/07/25 12:32:35;;;;;;;;;;;24.80;99.90;;;;;;1890113;76;20213;-68
2021/07/25 12:35:12;;;;;;;;;;;24.80;99.90;;;;;;1891212;76;20101;-69
2021/07/25 12:37:46;;;;;;;;;;;24.80;99.90;;;;;;1891164;75;20237;-69
2021/07/25 12:40:17;;;;;;;;;;;25.00;99.90;;;;;;1891194;75;20210;-69
2021/07/25 12:42:48;;;;;;;;;;;25.00;99.90;;;;;;1889653;75;20385;-69
2021/07/25 12:45:29;;;;;;;;;;;25.00;99.90;;;;;;1893779;74;20167;-69
2021/07/25 12:48:12;;;;;;;;;;;25.00;99.90;;;;;;1889637;74;20161;-69
2021/07/25 12:50:45;;;;;;;;;;;24.90;99.90;;;;;;1891223;75;20393;-69
2021/07/25 12:53:17;;;;;;;;;;;24.90;99.90;;;;;;1891540;75;20150;-69
2021/07/25 12:55:45;;;;;;;;;;;24.80;99.90;;;;;;1906486;74;20179;-71